首页
METAR-TAF:

METAR-TAF

机场 :

穆尔塔拉·穆罕默德国际机场

拉哥斯, 尼日利亚

纬度: 06-35N, 经度: 003-20E, 海拔: 40米

当前天气观测

该预报发布于1小时和6分钟前的14:00 UTC
风速5节,风向
温度 33°C
湿度 71%
气压 1011 hPa
能见度10公里或以上
多云层高于1400英尺
少量云层高于2000英尺, 积雨云.

METAR: DNMM 231400Z 19005KT 9999 BKN014 FEW020CB 33/27 Q1011 NOSIG

时间: 16:06 (15:06 UTC)

预报

该预报发布于23小时和21分钟前的15:45 UTC
预报有效从22日的 18点(UTC)到 23日的 24点(UTC)
风速2节,风向多变
能见度10公里或以上
散云层高于900英尺
短暂存在
从 22日的 18点(UTC)到 22日的 24点(UTC)
散云层高于900英尺
少量云层高于2000英尺, 积雨云.
雷暴
几率 30%
从 22日的 19点(UTC)到 22日的 23点(UTC)
能見度: 5000
多云层高于900英尺
少量云层高于1900英尺, 积雨云.
雷暴, 小雨
成为
从 23日的 08点(UTC)到 23日的 10点(UTC)
风速10节,风向南转西南
多云层高于1400英尺

TAF: DNMM 221545Z 2218/2324 VRB02KT 9999 SCT009 TEMPO 2218/2224 TS SCT009 FEW020CB PROB30 2219/2223 5000 -TSRA BKN009 FEW019CB BECMG 2308/2310 21010KT BKN014

超过4000个机场的气象观测和天气预报(METAR&TAF报告)。

可查询的气象台以黄色和红色小点在地图上表示。

将鼠标移到小点上方,可查看气象台名称。

然后点击查看天气观测和预报。

如需切换地图:点击带黑十字的绿色按钮放大地图;点击带横线的绿色按钮缩小地图;或者点击绿色箭头查看邻近地区的地图。


METAR-TAF: